Terminal Aerodrome Forecast
Issued by NWS

Home | Current Version | Previous Version | Text Only | Print | Product List | Glossary On
Versions: 1 2 3 4 5 6 7 8 9 10 11 12 13 14 15
000
FTUS46 KLOX 230540
TAFSBA
TAF
KSBA 230540Z 2306/2406 VRB03KT P6SM SCT200 WS015/34035KT
      TEMPO 2306/2310 35015G23KT
     FM231100 01007KT P6SM SCT200 WS015/02030KT
     FM231500 11008KT P6SM SCT200
     FM231900 17008KT P6SM SCT200
     FM232200 26015KT P6SM SCT200 WS010/34030KT
     FM240100 31008KT P6SM SCT200 WS010/36035KT=

USA.gov is the U.S. government's official web portal to all federal, state and local government web resources and services.